»·PEaware :: N5914R KSMX-KBFL

N5914R :: KSMX-KBFL

FLIGHT INFORMATION

Flight Status: Arrived
Operator: Privately registered:
United States
More flights under this callsign
Pilot: Scott G. (88)
Aircraft: Unknown
(P32R)
More flights by this aircraft type
Origin: KSMX Santa Maria Pub/Capt Hancock
United States
Destination: KBFL Meadows
United States
More flights between these airports :: More routes between these airports
Route: DCT
File this flight plan on PilotEdge
Remarks: CAT 5 attempt
Altitude:
(Current/Filed)
7,500ft
Speed:
(Current/Filed)
160kts
Departed: 28-Dec-16 09:12 PM
Arrived: 28-Dec-16 09:47 PM
Distance/Time
Traveled:
76nm/0:35
Distance/Time
To Go:
Arrived

Flight Plot

Page will automatically refresh every two minutes.


Map Options




Map Legend


Flown Route
Filed Route
Departure Airport
Arrival Airport
Navaid (VOR, NDB)
Fix

Horizontal Profiles

Position Reports

Time Latitude Longitude Heading Altitude Ground
Speed
28-Dec-16 20:57 34.895686 -120.444962 314 264ft 0kts
28-Dec-16 20:58 34.895686 -120.444962 314 264ft 0kts
28-Dec-16 20:59 34.895686 -120.444962 314 264ft 0kts
28-Dec-16 21:00 34.895687 -120.444963 314 264ft 0kts
28-Dec-16 21:01 34.895687 -120.444963 314 264ft 0kts
28-Dec-16 21:02 34.895687 -120.444963 314 264ft 0kts
28-Dec-16 21:03 34.895687 -120.444963 314 264ft 0kts
28-Dec-16 21:04 34.895687 -120.444963 314 264ft 0kts
28-Dec-16 21:05 34.895687 -120.444963 314 264ft 0kts
28-Dec-16 21:06 34.895737 -120.445027 312 264ft 4kts
28-Dec-16 21:07 34.895219 -120.444859 136 264ft 12kts
28-Dec-16 21:08 34.893188 -120.444698 300 264ft 0kts
28-Dec-16 21:09 34.893188 -120.444698 300 264ft 0kts
28-Dec-16 21:10 34.893132 -120.444842 209 264ft 0kts
28-Dec-16 21:11 34.892641 -120.445525 291 264ft 6kts
28-Dec-16 21:12 34.906182 -120.461060 321 671ft 109kts
28-Dec-16 21:13 34.933408 -120.472249 41 1832ft 115kts
28-Dec-16 21:14 34.946106 -120.436704 72 2886ft 126kts
28-Dec-16 21:15 34.956936 -120.394459 79 3593ft 132kts
28-Dec-16 21:16 34.966653 -120.351258 76 4290ft 133kts
28-Dec-16 21:17 34.977575 -120.308139 75 4989ft 134kts
28-Dec-16 21:18 34.988817 -120.264915 76 5682ft 136kts
28-Dec-16 21:19 35.000232 -120.221250 76 6374ft 137kts
28-Dec-16 21:20 35.011873 -120.176763 76 7069ft 138kts
28-Dec-16 21:21 35.023732 -120.131254 76 7519ft 150kts
28-Dec-16 21:22 35.036868 -120.080994 76 7518ft 158kts
28-Dec-16 21:23 35.050139 -120.030147 76 7517ft 157kts
28-Dec-16 21:24 35.063571 -119.978553 76 7518ft 162kts
28-Dec-16 21:25 35.077179 -119.926195 76 7517ft 161kts
28-Dec-16 21:26 35.090827 -119.874194 76 7519ft 161kts
28-Dec-16 21:27 35.104350 -119.830559 74 7497ft 163kts
28-Dec-16 21:28 35.114387 -119.794843 76 7490ft 162kts
28-Dec-16 21:29 35.128163 -119.742757 76 7491ft 162kts
28-Dec-16 21:30 35.141782 -119.690391 76 7491ft 162kts
28-Dec-16 21:31 35.163214 -119.642850 70 7491ft 163kts
28-Dec-16 21:32 35.183992 -119.593190 65 7491ft 164kts
28-Dec-16 21:33 35.206836 -119.543364 64 6818ft 171kts
28-Dec-16 21:34 35.230420 -119.493046 63 6028ft 170kts
28-Dec-16 21:35 35.253548 -119.443697 62 5232ft 164kts
28-Dec-16 21:36 35.275899 -119.395969 62 4431ft 160kts
28-Dec-16 21:37 35.297951 -119.348849 61 3633ft 159kts
28-Dec-16 21:38 35.318778 -119.304319 60 3011ft 151kts
28-Dec-16 21:39 35.338544 -119.262016 60 2999ft 138kts
28-Dec-16 21:40 35.358028 -119.223354 54 2629ft 140kts
28-Dec-16 21:41 35.380979 -119.184400 52 2127ft 141kts
28-Dec-16 21:42 35.390941 -119.143871 86 1659ft 141kts
28-Dec-16 21:43 35.395858 -119.102455 70 1568ft 128kts
28-Dec-16 21:44 35.406514 -119.062558 70 1566ft 107kts
28-Dec-16 21:45 35.421974 -119.042478 333 829ft 84kts
28-Dec-16 21:46 35.436494 -119.059462 312 509ft 42kts
28-Dec-16 21:47 35.438215 -119.059970 64 509ft 8kts
28-Dec-16 21:48 35.437545 -119.058444 132 509ft 18kts
28-Dec-16 21:49 35.435073 -119.053962 33 509ft 11kts
28-Dec-16 21:50 35.435686 -119.053073 176 509ft 0kts
28-Dec-16 21:51 35.435686 -119.053073 176 509ft 0kts

Navigation Log

Ident Type
Flight plan parsing failed, navigation log unavailable